PREVISON - TAF: TAF - Paris-Aeroport Charles De Gaulle, France du: 20180624110000h UTC
TypeJUTCVentVisi. H.CouvertureMétéo
PREVISION 241100 251100 10° 15 km/h CAVOK

PREVISION brut - TAF LFPG 241100Z 2412/2518 01008KT CAVOK TX23/2415Z TN13/2504Z


METAR brut: LFPG 241400Z 01010KT 340V070 CAVOK 22/07 Q1023 NOSIG
Vent: Paris-Aeroport Charles De Gaulle, France Météo: Paris-Aeroport Charles De Gaulle, France
METAR décodé: Paris-Aeroport Charles De Gaulle, France.
Up : 25 mn à 14:00 UTC.
Vent : 19 km/h >> Nord (010°), var Nord-NO (340°)et Est-NE (070°).
Visibilité Hor. : plus de 10 km.
Nuages : (CAVOK) aucun nuages sous 1500 m, pas de cumulonimbus et pas de phénomène significatif. .
Température : 22 °C. P. rosée. : 7 °C.
_C° ressentie : 25 °C.
Humidité : 37.9%.
Pression : 1023 hPa.
Météo : pas de changement significatif dans les deux prochaines heures..